sensor_id;sensor_type;location;lat;lon;timestamp;temperature;humidity
4223;DHT22;2125;51.436;14.138;2023-02-15T00:01:29;-0.70;87.20
4223;DHT22;2125;51.436;14.138;2023-02-15T00:03:56;-0.80;87.30
4223;DHT22;2125;51.436;14.138;2023-02-15T00:06:22;-0.90;87.40
4223;DHT22;2125;51.436;14.138;2023-02-15T00:08:49;-1.10;87.30
4223;DHT22;2125;51.436;14.138;2023-02-15T00:11:17;-1.00;87.20
4223;DHT22;2125;51.436;14.138;2023-02-15T00:14:04;-0.80;87.00
4223;DHT22;2125;51.436;14.138;2023-02-15T00:16:33;-0.70;87.00
4223;DHT22;2125;51.436;14.138;2023-02-15T00:18:59;-0.70;87.00
4223;DHT22;2125;51.436;14.138;2023-02-15T00:21:27;-0.80;87.10
4223;DHT22;2125;51.436;14.138;2023-02-15T00:23:54;-0.80;87.10
4223;DHT22;2125;51.436;14.138;2023-02-15T00:26:21;-0.70;87.20
4223;DHT22;2125;51.436;14.138;2023-02-15T00:28:47;-0.80;87.40
4223;DHT22;2125;51.436;14.138;2023-02-15T00:31:14;-0.80;87.40
4223;DHT22;2125;51.436;14.138;2023-02-15T00:33:42;-0.90;87.50
4223;DHT22;2125;51.436;14.138;2023-02-15T00:36:09;-0.90;87.50
4223;DHT22;2125;51.436;14.138;2023-02-15T00:38:36;-1.00;87.60
4223;DHT22;2125;51.436;14.138;2023-02-15T00:41:06;-1.00;87.60
4223;DHT22;2125;51.436;14.138;2023-02-15T00:43:34;-1.00;87.80
4223;DHT22;2125;51.436;14.138;2023-02-15T00:46:02;-1.00;87.80
4223;DHT22;2125;51.436;14.138;2023-02-15T00:48:28;-1.10;87.80
4223;DHT22;2125;51.436;14.138;2023-02-15T00:50:58;-1.10;87.80
4223;DHT22;2125;51.436;14.138;2023-02-15T00:53:26;-1.10;87.80
4223;DHT22;2125;51.436;14.138;2023-02-15T00:55:53;-1.20;87.80
4223;DHT22;2125;51.436;14.138;2023-02-15T00:58:20;-1.30;87.70
4223;DHT22;2125;51.436;14.138;2023-02-15T01:00:47;-1.20;87.60
4223;DHT22;2125;51.436;14.138;2023-02-15T01:03:15;-1.20;87.50
4223;DHT22;2125;51.436;14.138;2023-02-15T01:05:42;-1.20;87.30
4223;DHT22;2125;51.436;14.138;2023-02-15T01:08:10;-1.20;87.30
4223;DHT22;2125;51.436;14.138;2023-02-15T01:10:37;-1.30;87.30
4223;DHT22;2125;51.436;14.138;2023-02-15T01:13:04;-1.30;87.20
4223;DHT22;2125;51.436;14.138;2023-02-15T01:15:31;-1.20;87.00
4223;DHT22;2125;51.436;14.138;2023-02-15T01:18:00;-1.20;87.10
4223;DHT22;2125;51.436;14.138;2023-02-15T01:20:28;-1.20;87.00
4223;DHT22;2125;51.436;14.138;2023-02-15T01:22:56;-1.10;86.80
4223;DHT22;2125;51.436;14.138;2023-02-15T01:25:24;-1.10;86.80
4223;DHT22;2125;51.436;14.138;2023-02-15T01:27:51;-1.10;86.90
4223;DHT22;2125;51.436;14.138;2023-02-15T01:30:18;-1.20;86.80
4223;DHT22;2125;51.436;14.138;2023-02-15T01:32:46;-1.20;87.00
4223;DHT22;2125;51.436;14.138;2023-02-15T01:35:12;-1.20;86.80
4223;DHT22;2125;51.436;14.138;2023-02-15T01:37:39;-1.20;87.10
4223;DHT22;2125;51.436;14.138;2023-02-15T01:40:09;-1.20;87.20
4223;DHT22;2125;51.436;14.138;2023-02-15T01:42:39;-1.20;87.40
4223;DHT22;2125;51.436;14.138;2023-02-15T01:45:17;-1.30;87.60
4223;DHT22;2125;51.436;14.138;2023-02-15T01:47:49;-1.30;87.60
4223;DHT22;2125;51.436;14.138;2023-02-15T01:50:18;-1.20;87.70
4223;DHT22;2125;51.436;14.138;2023-02-15T01:52:49;-1.20;87.70
4223;DHT22;2125;51.436;14.138;2023-02-15T01:55:18;-1.30;87.80
4223;DHT22;2125;51.436;14.138;2023-02-15T01:57:47;-1.40;87.80
4223;DHT22;2125;51.436;14.138;2023-02-15T02:00:15;-1.50;87.70
4223;DHT22;2125;51.436;14.138;2023-02-15T02:02:45;-1.50;87.60
4223;DHT22;2125;51.436;14.138;2023-02-15T02:05:13;-1.50;87.50
4223;DHT22;2125;51.436;14.138;2023-02-15T02:07:42;-1.40;87.30
4223;DHT22;2125;51.436;14.138;2023-02-15T02:10:12;-1.50;87.40
4223;DHT22;2125;51.436;14.138;2023-02-15T02:12:40;-1.50;87.30
4223;DHT22;2125;51.436;14.138;2023-02-15T02:15:10;-1.40;87.10
4223;DHT22;2125;51.436;14.138;2023-02-15T02:17:45;-1.30;87.00
4223;DHT22;2125;51.436;14.138;2023-02-15T02:20:28;-1.30;87.00
4223;DHT22;2125;51.436;14.138;2023-02-15T02:23:38;-1.40;87.00
4223;DHT22;2125;51.436;14.138;2023-02-15T02:27:01;-1.40;87.00
4223;DHT22;2125;51.436;14.138;2023-02-15T02:33:17;-1.40;86.90
4223;DHT22;2125;51.436;14.138;2023-02-15T02:35:50;-1.40;86.80
4223;DHT22;2125;51.436;14.138;2023-02-15T02:38:24;-1.40;86.60
4223;DHT22;2125;51.436;14.138;2023-02-15T02:40:59;-1.30;86.60
4223;DHT22;2125;51.436;14.138;2023-02-15T02:43:32;-1.30;86.60
4223;DHT22;2125;51.436;14.138;2023-02-15T02:46:05;-1.30;86.70
4223;DHT22;2125;51.436;14.138;2023-02-15T02:48:34;-1.40;86.70
4223;DHT22;2125;51.436;14.138;2023-02-15T02:51:01;-1.40;86.80
4223;DHT22;2125;51.436;14.138;2023-02-15T02:53:30;-1.40;86.80
4223;DHT22;2125;51.436;14.138;2023-02-15T02:56:01;-1.40;87.00
4223;DHT22;2125;51.436;14.138;2023-02-15T02:58:32;-1.40;87.30
4223;DHT22;2125;51.436;14.138;2023-02-15T03:01:05;-1.50;87.60
4223;DHT22;2125;51.436;14.138;2023-02-15T03:03:37;-1.60;87.90
4223;DHT22;2125;51.436;14.138;2023-02-15T03:06:07;-1.70;88.00
4223;DHT22;2125;51.436;14.138;2023-02-15T03:08:38;-1.80;88.00
4223;DHT22;2125;51.436;14.138;2023-02-15T03:11:07;-1.90;88.20
4223;DHT22;2125;51.436;14.138;2023-02-15T03:13:35;-1.90;88.20
4223;DHT22;2125;51.436;14.138;2023-02-15T03:16:05;-1.90;88.10
4223;DHT22;2125;51.436;14.138;2023-02-15T03:18:53;-1.90;88.10
4223;DHT22;2125;51.436;14.138;2023-02-15T03:21:27;-2.00;88.10
4223;DHT22;2125;51.436;14.138;2023-02-15T03:24:00;-2.00;88.10
4223;DHT22;2125;51.436;14.138;2023-02-15T03:26:30;-2.00;88.30
4223;DHT22;2125;51.436;14.138;2023-02-15T03:28:58;-2.10;88.30
4223;DHT22;2125;51.436;14.138;2023-02-15T03:31:28;-2.20;88.30
4223;DHT22;2125;51.436;14.138;2023-02-15T03:33:59;-2.20;88.30
4223;DHT22;2125;51.436;14.138;2023-02-15T03:36:30;-2.20;88.30
4223;DHT22;2125;51.436;14.138;2023-02-15T03:39:12;-2.20;88.30
4223;DHT22;2125;51.436;14.138;2023-02-15T03:41:46;-2.30;88.30
4223;DHT22;2125;51.436;14.138;2023-02-15T03:44:18;-2.20;88.30
4223;DHT22;2125;51.436;14.138;2023-02-15T03:46:48;-2.20;88.30
4223;DHT22;2125;51.436;14.138;2023-02-15T03:49:22;-2.30;88.30
4223;DHT22;2125;51.436;14.138;2023-02-15T03:51:52;-2.30;88.20
4223;DHT22;2125;51.436;14.138;2023-02-15T03:54:24;-2.30;88.20
4223;DHT22;2125;51.436;14.138;2023-02-15T03:57:14;-2.20;88.10
4223;DHT22;2125;51.436;14.138;2023-02-15T03:59:59;-2.10;88.10
4223;DHT22;2125;51.436;14.138;2023-02-15T04:02:57;-2.10;88.10
4223;DHT22;2125;51.436;14.138;2023-02-15T04:05:28;-2.20;88.20
4223;DHT22;2125;51.436;14.138;2023-02-15T04:07:55;-2.30;88.20
4223;DHT22;2125;51.436;14.138;2023-02-15T04:10:21;-2.30;88.10
4223;DHT22;2125;51.436;14.138;2023-02-15T04:13:05;-2.30;88.00
4223;DHT22;2125;51.436;14.138;2023-02-15T04:15:32;-2.10;87.80
4223;DHT22;2125;51.436;14.138;2023-02-15T04:18:16;-2.10;87.80
4223;DHT22;2125;51.436;14.138;2023-02-15T04:20:45;-2.00;87.70
4223;DHT22;2125;51.436;14.138;2023-02-15T04:23:29;-2.00;87.70
4223;DHT22;2125;51.436;14.138;2023-02-15T04:26:13;-2.00;87.60
4223;DHT22;2125;51.436;14.138;2023-02-15T04:28:40;-2.00;87.60
4223;DHT22;2125;51.436;14.138;2023-02-15T04:31:07;-2.00;87.50
4223;DHT22;2125;51.436;14.138;2023-02-15T04:33:33;-1.90;87.60
4223;DHT22;2125;51.436;14.138;2023-02-15T04:36:02;-2.00;87.70
4223;DHT22;2125;51.436;14.138;2023-02-15T04:38:29;-2.10;87.80
4223;DHT22;2125;51.436;14.138;2023-02-15T04:40:56;-2.20;88.00
4223;DHT22;2125;51.436;14.138;2023-02-15T04:43:22;-2.30;88.10
4223;DHT22;2125;51.436;14.138;2023-02-15T04:45:49;-2.40;88.00
4223;DHT22;2125;51.436;14.138;2023-02-15T04:48:16;-2.20;87.90
4223;DHT22;2125;51.436;14.138;2023-02-15T04:50:44;-2.20;87.70
4223;DHT22;2125;51.436;14.138;2023-02-15T04:53:12;-2.20;87.60
4223;DHT22;2125;51.436;14.138;2023-02-15T04:55:38;-2.10;87.50
4223;DHT22;2125;51.436;14.138;2023-02-15T04:58:05;-2.00;87.50
4223;DHT22;2125;51.436;14.138;2023-02-15T05:00:32;-2.00;87.50
4223;DHT22;2125;51.436;14.138;2023-02-15T05:02:58;-2.00;87.50
4223;DHT22;2125;51.436;14.138;2023-02-15T05:05:25;-2.00;87.50
4223;DHT22;2125;51.436;14.138;2023-02-15T05:07:51;-2.10;87.50
4223;DHT22;2125;51.436;14.138;2023-02-15T05:10:19;-2.00;87.40
4223;DHT22;2125;51.436;14.138;2023-02-15T05:12:46;-2.00;87.50
4223;DHT22;2125;51.436;14.138;2023-02-15T05:15:13;-2.00;87.50
4223;DHT22;2125;51.436;14.138;2023-02-15T05:17:39;-2.10;87.60
4223;DHT22;2125;51.436;14.138;2023-02-15T05:20:07;-2.20;87.60
4223;DHT22;2125;51.436;14.138;2023-02-15T05:22:33;-2.20;87.70
4223;DHT22;2125;51.436;14.138;2023-02-15T05:25:00;-2.20;88.00
4223;DHT22;2125;51.436;14.138;2023-02-15T05:27:45;-2.20;88.10
4223;DHT22;2125;51.436;14.138;2023-02-15T05:30:29;-2.30;88.30
4223;DHT22;2125;51.436;14.138;2023-02-15T05:32:56;-2.30;88.30
4223;DHT22;2125;51.436;14.138;2023-02-15T05:35:23;-2.40;88.20
4223;DHT22;2125;51.436;14.138;2023-02-15T05:37:49;-2.40;88.20
4223;DHT22;2125;51.436;14.138;2023-02-15T05:40:16;-2.30;88.30
4223;DHT22;2125;51.436;14.138;2023-02-15T05:42:43;-2.30;88.30
4223;DHT22;2125;51.436;14.138;2023-02-15T05:45:10;-2.30;88.30
4223;DHT22;2125;51.436;14.138;2023-02-15T05:47:38;-2.30;88.30
4223;DHT22;2125;51.436;14.138;2023-02-15T05:50:06;-2.30;88.40
4223;DHT22;2125;51.436;14.138;2023-02-15T05:52:32;-2.30;88.40
4223;DHT22;2125;51.436;14.138;2023-02-15T05:54:59;-2.40;88.30
4223;DHT22;2125;51.436;14.138;2023-02-15T05:57:27;-2.40;88.30
4223;DHT22;2125;51.436;14.138;2023-02-15T05:59:54;-2.30;88.20
4223;DHT22;2125;51.436;14.138;2023-02-15T06:02:22;-2.20;88.20
4223;DHT22;2125;51.436;14.138;2023-02-15T06:04:49;-2.20;88.20
4223;DHT22;2125;51.436;14.138;2023-02-15T06:07:15;-2.20;88.20
4223;DHT22;2125;51.436;14.138;2023-02-15T06:09:42;-2.20;88.30
4223;DHT22;2125;51.436;14.138;2023-02-15T06:12:08;-2.30;88.30
4223;DHT22;2125;51.436;14.138;2023-02-15T06:14:35;-2.30;88.30
4223;DHT22;2125;51.436;14.138;2023-02-15T06:17:02;-2.30;88.20
4223;DHT22;2125;51.436;14.138;2023-02-15T06:19:29;-2.20;88.20
4223;DHT22;2125;51.436;14.138;2023-02-15T06:21:56;-2.20;88.20
4223;DHT22;2125;51.436;14.138;2023-02-15T06:24:23;-2.10;88.10
4223;DHT22;2125;51.436;14.138;2023-02-15T06:26:49;-2.10;88.10
4223;DHT22;2125;51.436;14.138;2023-02-15T06:29:16;-2.10;88.10
4223;DHT22;2125;51.436;14.138;2023-02-15T06:31:42;-2.20;88.10
4223;DHT22;2125;51.436;14.138;2023-02-15T06:34:09;-2.20;88.10
4223;DHT22;2125;51.436;14.138;2023-02-15T06:36:37;-2.20;88.20
4223;DHT22;2125;51.436;14.138;2023-02-15T06:39:04;-2.20;88.30
4223;DHT22;2125;51.436;14.138;2023-02-15T06:41:30;-2.20;88.40
4223;DHT22;2125;51.436;14.138;2023-02-15T06:43:57;-2.20;88.40
4223;DHT22;2125;51.436;14.138;2023-02-15T06:46:24;-2.20;88.40
4223;DHT22;2125;51.436;14.138;2023-02-15T06:48:50;-2.20;88.50
4223;DHT22;2125;51.436;14.138;2023-02-15T06:51:17;-2.20;88.40
4223;DHT22;2125;51.436;14.138;2023-02-15T06:53:45;-2.30;88.40
4223;DHT22;2125;51.436;14.138;2023-02-15T06:56:11;-2.20;88.40
4223;DHT22;2125;51.436;14.138;2023-02-15T06:58:39;-2.20;88.40
4223;DHT22;2125;51.436;14.138;2023-02-15T07:01:06;-2.10;88.40
4223;DHT22;2125;51.436;14.138;2023-02-15T07:03:34;-2.10;88.50
4223;DHT22;2125;51.436;14.138;2023-02-15T07:06:02;-2.10;88.40
4223;DHT22;2125;51.436;14.138;2023-02-15T07:08:31;-2.00;88.40
4223;DHT22;2125;51.436;14.138;2023-02-15T07:10:59;-1.90;88.40
4223;DHT22;2125;51.436;14.138;2023-02-15T07:13:46;-1.90;88.40
4223;DHT22;2125;51.436;14.138;2023-02-15T07:16:12;-1.80;88.40
4223;DHT22;2125;51.436;14.138;2023-02-15T07:18:39;-1.80;88.40
4223;DHT22;2125;51.436;14.138;2023-02-15T07:21:05;-1.70;88.40
4223;DHT22;2125;51.436;14.138;2023-02-15T07:23:34;-1.60;88.40
4223;DHT22;2125;51.436;14.138;2023-02-15T07:26:02;-1.60;88.40
4223;DHT22;2125;51.436;14.138;2023-02-15T07:28:29;-1.50;88.40
4223;DHT22;2125;51.436;14.138;2023-02-15T07:30:55;-1.40;88.40
4223;DHT22;2125;51.436;14.138;2023-02-15T07:33:22;-1.30;88.20
4223;DHT22;2125;51.436;14.138;2023-02-15T07:35:49;-1.20;88.30
4223;DHT22;2125;51.436;14.138;2023-02-15T07:38:17;-1.20;88.20
4223;DHT22;2125;51.436;14.138;2023-02-15T07:40:44;-1.10;88.20
4223;DHT22;2125;51.436;14.138;2023-02-15T07:43:12;-1.00;88.20
4223;DHT22;2125;51.436;14.138;2023-02-15T07:45:39;-0.90;88.00
4223;DHT22;2125;51.436;14.138;2023-02-15T07:48:06;-0.70;87.90
4223;DHT22;2125;51.436;14.138;2023-02-15T07:50:34;-0.50;87.90
4223;DHT22;2125;51.436;14.138;2023-02-15T07:53:01;-0.30;87.90
4223;DHT22;2125;51.436;14.138;2023-02-15T07:55:28;-0.20;88.00
4223;DHT22;2125;51.436;14.138;2023-02-15T07:57:54;-0.10;88.00
4223;DHT22;2125;51.436;14.138;2023-02-15T08:00:22;0.00;88.00
4223;DHT22;2125;51.436;14.138;2023-02-15T08:02:54;0.00;88.10
4223;DHT22;2125;51.436;14.138;2023-02-15T08:05:34;0.10;88.00
4223;DHT22;2125;51.436;14.138;2023-02-15T08:08:01;0.20;87.90
4223;DHT22;2125;51.436;14.138;2023-02-15T08:10:28;0.30;87.90
4223;DHT22;2125;51.436;14.138;2023-02-15T08:13:08;0.50;87.90
4223;DHT22;2125;51.436;14.138;2023-02-15T08:15:36;0.60;87.80
4223;DHT22;2125;51.436;14.138;2023-02-15T08:18:03;0.70;87.80
4223;DHT22;2125;51.436;14.138;2023-02-15T08:20:29;0.80;87.90
4223;DHT22;2125;51.436;14.138;2023-02-15T08:22:56;0.90;87.90
4223;DHT22;2125;51.436;14.138;2023-02-15T08:25:23;1.00;87.90
4223;DHT22;2125;51.436;14.138;2023-02-15T08:27:49;1.00;87.90
4223;DHT22;2125;51.436;14.138;2023-02-15T08:30:16;1.20;87.90
4223;DHT22;2125;51.436;14.138;2023-02-15T08:32:44;1.30;87.80
4223;DHT22;2125;51.436;14.138;2023-02-15T08:35:10;1.40;87.70
4223;DHT22;2125;51.436;14.138;2023-02-15T08:37:37;1.50;87.80
4223;DHT22;2125;51.436;14.138;2023-02-15T08:40:05;1.60;87.70
4223;DHT22;2125;51.436;14.138;2023-02-15T08:42:32;1.80;87.70
4223;DHT22;2125;51.436;14.138;2023-02-15T08:44:59;1.90;87.70
4223;DHT22;2125;51.436;14.138;2023-02-15T08:47:25;2.00;87.70
4223;DHT22;2125;51.436;14.138;2023-02-15T08:49:53;2.10;87.60
4223;DHT22;2125;51.436;14.138;2023-02-15T08:52:21;2.30;87.50
4223;DHT22;2125;51.436;14.138;2023-02-15T08:54:47;2.40;87.50
4223;DHT22;2125;51.436;14.138;2023-02-15T08:57:14;2.60;87.50
4223;DHT22;2125;51.436;14.138;2023-02-15T08:59:41;2.80;87.30
4223;DHT22;2125;51.436;14.138;2023-02-15T09:02:10;2.80;87.20
4223;DHT22;2125;51.436;14.138;2023-02-15T09:04:37;3.00;87.00
4223;DHT22;2125;51.436;14.138;2023-02-15T09:07:04;3.10;87.00
4223;DHT22;2125;51.436;14.138;2023-02-15T09:09:31;3.20;86.80
4223;DHT22;2125;51.436;14.138;2023-02-15T09:11:58;3.30;86.80
4223;DHT22;2125;51.436;14.138;2023-02-15T09:14:25;3.30;86.90
4223;DHT22;2125;51.436;14.138;2023-02-15T09:16:52;3.40;86.90
4223;DHT22;2125;51.436;14.138;2023-02-15T09:19:20;3.50;86.90
4223;DHT22;2125;51.436;14.138;2023-02-15T09:21:48;3.60;86.90
4223;DHT22;2125;51.436;14.138;2023-02-15T09:24:17;3.70;87.00
4223;DHT22;2125;51.436;14.138;2023-02-15T09:26:46;3.80;87.10
4223;DHT22;2125;51.436;14.138;2023-02-15T09:29:14;3.90;87.00
4223;DHT22;2125;51.436;14.138;2023-02-15T09:31:43;4.10;87.00
4223;DHT22;2125;51.436;14.138;2023-02-15T09:34:11;4.20;87.10
4223;DHT22;2125;51.436;14.138;2023-02-15T09:36:38;4.40;87.30
4223;DHT22;2125;51.436;14.138;2023-02-15T09:39:08;4.60;87.40
4223;DHT22;2125;51.436;14.138;2023-02-15T09:47:50;5.00;87.30
4223;DHT22;2125;51.436;14.138;2023-02-15T09:50:27;5.20;87.20
4223;DHT22;2125;51.436;14.138;2023-02-15T09:53:14;5.30;87.00
4223;DHT22;2125;51.436;14.138;2023-02-15T09:55:49;5.40;86.70
4223;DHT22;2125;51.436;14.138;2023-02-15T09:58:24;5.50;86.50
4223;DHT22;2125;51.436;14.138;2023-02-15T10:00:59;5.60;86.20
4223;DHT22;2125;51.436;14.138;2023-02-15T10:03:39;5.70;86.00
4223;DHT22;2125;51.436;14.138;2023-02-15T10:06:23;5.80;85.70
4223;DHT22;2125;51.436;14.138;2023-02-15T10:11:56;6.00;85.30
4223;DHT22;2125;51.436;14.138;2023-02-15T10:14:45;6.10;85.10
4223;DHT22;2125;51.436;14.138;2023-02-15T10:17:26;6.30;84.60
4223;DHT22;2125;51.436;14.138;2023-02-15T10:20:04;6.30;84.00
4223;DHT22;2125;51.436;14.138;2023-02-15T10:22:43;6.40;83.20
4223;DHT22;2125;51.436;14.138;2023-02-15T10:25:30;6.50;82.60
4223;DHT22;2125;51.436;14.138;2023-02-15T10:28:03;6.60;81.90
4223;DHT22;2125;51.436;14.138;2023-02-15T10:30:38;6.70;82.00
4223;DHT22;2125;51.436;14.138;2023-02-15T10:33:14;6.80;81.50
4223;DHT22;2125;51.436;14.138;2023-02-15T10:35:50;6.80;80.80
4223;DHT22;2125;51.436;14.138;2023-02-15T10:38:27;6.80;80.80
4223;DHT22;2125;51.436;14.138;2023-02-15T10:41:03;6.90;80.80
4223;DHT22;2125;51.436;14.138;2023-02-15T10:43:45;6.90;80.70
4223;DHT22;2125;51.436;14.138;2023-02-15T10:46:26;6.80;80.70
4223;DHT22;2125;51.436;14.138;2023-02-15T10:49:12;6.90;80.80
4223;DHT22;2125;51.436;14.138;2023-02-15T10:51:46;7.00;80.50
4223;DHT22;2125;51.436;14.138;2023-02-15T10:54:24;7.00;80.40
4223;DHT22;2125;51.436;14.138;2023-02-15T10:57:00;7.00;80.30
4223;DHT22;2125;51.436;14.138;2023-02-15T10:59:40;7.10;80.40
4223;DHT22;2125;51.436;14.138;2023-02-15T11:02:18;7.00;80.40
4223;DHT22;2125;51.436;14.138;2023-02-15T11:04:52;7.10;80.10
4223;DHT22;2125;51.436;14.138;2023-02-15T11:07:24;7.10;80.10
4223;DHT22;2125;51.436;14.138;2023-02-15T11:09:56;7.10;79.90
4223;DHT22;2125;51.436;14.138;2023-02-15T11:12:28;7.10;79.90
4223;DHT22;2125;51.436;14.138;2023-02-15T11:14:58;7.10;79.70
4223;DHT22;2125;51.436;14.138;2023-02-15T11:17:32;7.20;79.80
4223;DHT22;2125;51.436;14.138;2023-02-15T11:20:08;7.20;79.60
4223;DHT22;2125;51.436;14.138;2023-02-15T11:22:39;7.20;79.80
4223;DHT22;2125;51.436;14.138;2023-02-15T11:25:16;7.30;79.50
4223;DHT22;2125;51.436;14.138;2023-02-15T11:27:43;7.30;79.70
4223;DHT22;2125;51.436;14.138;2023-02-15T11:30:14;7.40;79.50
4223;DHT22;2125;51.436;14.138;2023-02-15T11:32:45;7.40;79.30
4223;DHT22;2125;51.436;14.138;2023-02-15T11:35:22;7.50;79.10
4223;DHT22;2125;51.436;14.138;2023-02-15T11:37:54;7.60;79.20
4223;DHT22;2125;51.436;14.138;2023-02-15T11:40:26;7.50;79.50
4223;DHT22;2125;51.436;14.138;2023-02-15T11:42:56;7.60;79.50
4223;DHT22;2125;51.436;14.138;2023-02-15T11:45:26;7.60;79.10
4223;DHT22;2125;51.436;14.138;2023-02-15T11:47:56;7.60;79.30
4223;DHT22;2125;51.436;14.138;2023-02-15T11:50:24;7.70;79.30
4223;DHT22;2125;51.436;14.138;2023-02-15T11:52:52;7.70;79.10
4223;DHT22;2125;51.436;14.138;2023-02-15T11:55:23;7.70;79.00
4223;DHT22;2125;51.436;14.138;2023-02-15T11:57:53;7.70;79.10
4223;DHT22;2125;51.436;14.138;2023-02-15T12:00:30;7.70;79.20
4223;DHT22;2125;51.436;14.138;2023-02-15T12:03:07;7.80;79.10
4223;DHT22;2125;51.436;14.138;2023-02-15T12:05:37;7.80;79.20
4223;DHT22;2125;51.436;14.138;2023-02-15T12:08:20;7.80;79.20
4223;DHT22;2125;51.436;14.138;2023-02-15T12:10:57;7.90;78.80
4223;DHT22;2125;51.436;14.138;2023-02-15T12:13:24;7.90;79.00
4223;DHT22;2125;51.436;14.138;2023-02-15T12:15:53;8.00;79.10
4223;DHT22;2125;51.436;14.138;2023-02-15T12:18:35;8.00;78.70
4223;DHT22;2125;51.436;14.138;2023-02-15T12:21:06;8.00;78.20
4223;DHT22;2125;51.436;14.138;2023-02-15T12:23:33;8.00;78.70
4223;DHT22;2125;51.436;14.138;2023-02-15T12:26:02;8.00;78.50
4223;DHT22;2125;51.436;14.138;2023-02-15T12:28:31;8.10;78.60
4223;DHT22;2125;51.436;14.138;2023-02-15T12:30:59;8.10;78.60
4223;DHT22;2125;51.436;14.138;2023-02-15T12:33:30;8.20;78.40
4223;DHT22;2125;51.436;14.138;2023-02-15T12:36:00;8.30;78.50
4223;DHT22;2125;51.436;14.138;2023-02-15T12:38:28;8.30;78.10
4223;DHT22;2125;51.436;14.138;2023-02-15T12:40:58;8.40;78.00
4223;DHT22;2125;51.436;14.138;2023-02-15T12:43:31;8.30;77.70
4223;DHT22;2125;51.436;14.138;2023-02-15T12:46:19;8.40;76.80
4223;DHT22;2125;51.436;14.138;2023-02-15T12:49:04;8.60;76.50
4223;DHT22;2125;51.436;14.138;2023-02-15T12:51:42;8.60;76.20
4223;DHT22;2125;51.436;14.138;2023-02-15T12:54:16;8.50;76.10
4223;DHT22;2125;51.436;14.138;2023-02-15T12:56:43;8.50;76.20
4223;DHT22;2125;51.436;14.138;2023-02-15T12:59:14;8.60;76.00
4223;DHT22;2125;51.436;14.138;2023-02-15T13:01:41;8.60;75.80
4223;DHT22;2125;51.436;14.138;2023-02-15T13:04:21;8.60;76.10
4223;DHT22;2125;51.436;14.138;2023-02-15T13:06:49;8.60;76.20
4223;DHT22;2125;51.436;14.138;2023-02-15T13:09:20;8.70;75.90
4223;DHT22;2125;51.436;14.138;2023-02-15T13:11:47;8.70;75.40
4223;DHT22;2125;51.436;14.138;2023-02-15T13:14:19;8.70;75.80
4223;DHT22;2125;51.436;14.138;2023-02-15T13:16:48;8.70;75.70
4223;DHT22;2125;51.436;14.138;2023-02-15T13:19:18;8.70;75.70
4223;DHT22;2125;51.436;14.138;2023-02-15T13:21:47;8.70;75.60
4223;DHT22;2125;51.436;14.138;2023-02-15T13:24:18;8.60;76.00
4223;DHT22;2125;51.436;14.138;2023-02-15T13:26:46;8.70;76.00
4223;DHT22;2125;51.436;14.138;2023-02-15T13:29:18;8.70;75.80
4223;DHT22;2125;51.436;14.138;2023-02-15T13:31:48;8.70;75.20
4223;DHT22;2125;51.436;14.138;2023-02-15T13:34:20;8.70;75.10
4223;DHT22;2125;51.436;14.138;2023-02-15T13:36:52;8.70;75.20
4223;DHT22;2125;51.436;14.138;2023-02-15T13:39:26;8.70;75.20
4223;DHT22;2125;51.436;14.138;2023-02-15T13:42:00;8.80;75.40
4223;DHT22;2125;51.436;14.138;2023-02-15T13:44:49;8.90;74.80
4223;DHT22;2125;51.436;14.138;2023-02-15T13:47:23;8.90;74.70
4223;DHT22;2125;51.436;14.138;2023-02-15T13:52:56;9.00;74.00
4223;DHT22;2125;51.436;14.138;2023-02-15T13:55:30;9.00;74.30
4223;DHT22;2125;51.436;14.138;2023-02-15T13:58:13;9.10;74.10
4223;DHT22;2125;51.436;14.138;2023-02-15T14:00:48;9.10;73.90
4223;DHT22;2125;51.436;14.138;2023-02-15T14:06:25;9.00;73.80
4223;DHT22;2125;51.436;14.138;2023-02-15T14:09:07;9.00;74.00
4223;DHT22;2125;51.436;14.138;2023-02-15T14:11:44;9.00;73.70
4223;DHT22;2125;51.436;14.138;2023-02-15T14:14:39;9.00;73.80
4223;DHT22;2125;51.436;14.138;2023-02-15T14:17:15;8.90;74.50
4223;DHT22;2125;51.436;14.138;2023-02-15T14:19:47;8.90;74.50
4223;DHT22;2125;51.436;14.138;2023-02-15T14:22:25;8.80;75.00
4223;DHT22;2125;51.436;14.138;2023-02-15T14:25:03;8.70;75.10
4223;DHT22;2125;51.436;14.138;2023-02-15T14:27:44;8.70;75.40
4223;DHT22;2125;51.436;14.138;2023-02-15T14:30:17;8.70;75.60
4223;DHT22;2125;51.436;14.138;2023-02-15T14:32:47;8.70;75.80
4223;DHT22;2125;51.436;14.138;2023-02-15T14:35:17;8.70;75.60
4223;DHT22;2125;51.436;14.138;2023-02-15T14:37:50;8.70;75.40
4223;DHT22;2125;51.436;14.138;2023-02-15T14:40:30;8.60;75.80
4223;DHT22;2125;51.436;14.138;2023-02-15T14:43:23;8.50;76.20
4223;DHT22;2125;51.436;14.138;2023-02-15T14:45:53;8.50;76.40
4223;DHT22;2125;51.436;14.138;2023-02-15T14:48:23;8.50;76.40
4223;DHT22;2125;51.436;14.138;2023-02-15T14:50:52;8.40;76.50
4223;DHT22;2125;51.436;14.138;2023-02-15T14:53:36;8.40;76.40
4223;DHT22;2125;51.436;14.138;2023-02-15T14:56:15;8.30;76.40
4223;DHT22;2125;51.436;14.138;2023-02-15T14:59:12;8.30;76.60
4223;DHT22;2125;51.436;14.138;2023-02-15T15:01:40;8.20;76.70
4223;DHT22;2125;51.436;14.138;2023-02-15T15:04:09;8.10;77.20
4223;DHT22;2125;51.436;14.138;2023-02-15T15:06:39;8.20;77.60
4223;DHT22;2125;51.436;14.138;2023-02-15T15:09:18;8.20;77.40
4223;DHT22;2125;51.436;14.138;2023-02-15T15:11:46;8.10;77.70
4223;DHT22;2125;51.436;14.138;2023-02-15T15:14:36;8.10;77.70
4223;DHT22;2125;51.436;14.138;2023-02-15T15:17:05;8.10;78.00
4223;DHT22;2125;51.436;14.138;2023-02-15T15:20:06;8.00;78.10
4223;DHT22;2125;51.436;14.138;2023-02-15T15:22:39;7.90;78.30
4223;DHT22;2125;51.436;14.138;2023-02-15T15:25:12;7.80;78.30
4223;DHT22;2125;51.436;14.138;2023-02-15T15:27:59;7.70;78.60
4223;DHT22;2125;51.436;14.138;2023-02-15T15:31:00;7.70;78.50
4223;DHT22;2125;51.436;14.138;2023-02-15T15:34:10;7.60;78.90
4223;DHT22;2125;51.436;14.138;2023-02-15T15:37:16;7.40;79.30
4223;DHT22;2125;51.436;14.138;2023-02-15T15:42:50;7.30;80.20
4223;DHT22;2125;51.436;14.138;2023-02-15T15:45:38;7.20;80.50
4223;DHT22;2125;51.436;14.138;2023-02-15T15:48:29;7.20;80.70
4223;DHT22;2125;51.436;14.138;2023-02-15T15:50:58;7.10;80.90
4223;DHT22;2125;51.436;14.138;2023-02-15T15:53:27;7.00;81.30
4223;DHT22;2125;51.436;14.138;2023-02-15T15:55:58;6.90;81.60
4223;DHT22;2125;51.436;14.138;2023-02-15T15:58:28;6.80;81.60
4223;DHT22;2125;51.436;14.138;2023-02-15T16:01:00;6.60;81.90
4223;DHT22;2125;51.436;14.138;2023-02-15T16:03:29;6.50;82.20
4223;DHT22;2125;51.436;14.138;2023-02-15T16:05:56;6.40;82.60
4223;DHT22;2125;51.436;14.138;2023-02-15T16:08:27;6.30;83.00
4223;DHT22;2125;51.436;14.138;2023-02-15T16:10:54;6.20;83.20
4223;DHT22;2125;51.436;14.138;2023-02-15T16:13:21;6.10;83.30
4223;DHT22;2125;51.436;14.138;2023-02-15T16:15:52;6.10;83.40
4223;DHT22;2125;51.436;14.138;2023-02-15T16:18:22;5.90;83.60
4223;DHT22;2125;51.436;14.138;2023-02-15T16:20:51;5.80;83.80
4223;DHT22;2125;51.436;14.138;2023-02-15T16:23:48;5.70;83.90
4223;DHT22;2125;51.436;14.138;2023-02-15T16:26:32;5.60;84.10
4223;DHT22;2125;51.436;14.138;2023-02-15T16:29:14;5.50;84.40
4223;DHT22;2125;51.436;14.138;2023-02-15T16:31:42;5.30;84.60
4223;DHT22;2125;51.436;14.138;2023-02-15T16:34:14;5.20;84.70
4223;DHT22;2125;51.436;14.138;2023-02-15T16:36:42;5.10;85.10
4223;DHT22;2125;51.436;14.138;2023-02-15T16:39:17;5.00;85.30
4223;DHT22;2125;51.436;14.138;2023-02-15T16:41:44;4.90;85.50
4223;DHT22;2125;51.436;14.138;2023-02-15T16:44:16;4.80;85.70
4223;DHT22;2125;51.436;14.138;2023-02-15T16:46:46;4.60;85.90